sensor_id;sensor_type;location;lat;lon;timestamp;P1;durP1;ratioP1;P2;durP2;ratioP2
49548;SDS011;35450;44.518;7.466;2024-01-11T00:00:01;29.75;;;18.90;;
49548;SDS011;35450;44.518;7.466;2024-01-11T00:03:07;34.50;;;21.65;;
49548;SDS011;35450;44.518;7.466;2024-01-11T00:06:11;50.08;;;24.95;;
49548;SDS011;35450;44.518;7.466;2024-01-11T00:09:15;41.45;;;21.42;;
49548;SDS011;35450;44.518;7.466;2024-01-11T00:12:19;33.17;;;19.85;;
49548;SDS011;35450;44.518;7.466;2024-01-11T00:15:23;35.88;;;21.05;;
49548;SDS011;35450;44.518;7.466;2024-01-11T00:18:27;32.88;;;19.67;;
49548;SDS011;35450;44.518;7.466;2024-01-11T00:21:31;32.28;;;19.83;;
49548;SDS011;35450;44.518;7.466;2024-01-11T00:24:36;32.67;;;18.58;;
49548;SDS011;35450;44.518;7.466;2024-01-11T00:27:40;29.05;;;18.45;;
49548;SDS011;35450;44.518;7.466;2024-01-11T00:30:43;33.70;;;20.17;;
49548;SDS011;35450;44.518;7.466;2024-01-11T00:33:47;33.53;;;20.42;;
49548;SDS011;35450;44.518;7.466;2024-01-11T00:36:51;32.05;;;19.25;;
49548;SDS011;35450;44.518;7.466;2024-01-11T00:39:55;29.30;;;18.55;;
49548;SDS011;35450;44.518;7.466;2024-01-11T00:42:59;27.15;;;17.25;;
49548;SDS011;35450;44.518;7.466;2024-01-11T00:46:03;28.40;;;17.92;;
49548;SDS011;35450;44.518;7.466;2024-01-11T00:49:07;29.90;;;17.65;;
49548;SDS011;35450;44.518;7.466;2024-01-11T00:52:11;32.50;;;18.13;;
49548;SDS011;35450;44.518;7.466;2024-01-11T00:55:17;38.13;;;19.00;;
49548;SDS011;35450;44.518;7.466;2024-01-11T00:58:21;75.05;;;31.20;;
49548;SDS011;35450;44.518;7.466;2024-01-11T01:01:25;54.10;;;25.73;;
49548;SDS011;35450;44.518;7.466;2024-01-11T01:04:29;38.85;;;20.55;;
49548;SDS011;35450;44.518;7.466;2024-01-11T01:07:33;40.67;;;21.90;;
49548;SDS011;35450;44.518;7.466;2024-01-11T01:10:37;40.80;;;20.95;;
49548;SDS011;35450;44.518;7.466;2024-01-11T01:13:41;35.72;;;19.17;;
49548;SDS011;35450;44.518;7.466;2024-01-11T01:16:45;41.05;;;21.67;;
49548;SDS011;35450;44.518;7.466;2024-01-11T01:19:49;46.03;;;22.13;;
49548;SDS011;35450;44.518;7.466;2024-01-11T01:22:53;44.38;;;22.60;;
49548;SDS011;35450;44.518;7.466;2024-01-11T01:25:57;38.53;;;20.90;;
49548;SDS011;35450;44.518;7.466;2024-01-11T01:29:01;30.25;;;18.48;;
49548;SDS011;35450;44.518;7.466;2024-01-11T01:32:05;27.85;;;16.73;;
49548;SDS011;35450;44.518;7.466;2024-01-11T01:35:09;28.98;;;18.23;;
49548;SDS011;35450;44.518;7.466;2024-01-11T01:38:13;25.88;;;17.23;;
49548;SDS011;35450;44.518;7.466;2024-01-11T01:41:17;31.48;;;19.60;;
49548;SDS011;35450;44.518;7.466;2024-01-11T01:44:21;29.45;;;18.98;;
49548;SDS011;35450;44.518;7.466;2024-01-11T01:47:25;27.90;;;18.58;;
49548;SDS011;35450;44.518;7.466;2024-01-11T01:50:31;28.30;;;17.67;;
49548;SDS011;35450;44.518;7.466;2024-01-11T01:53:35;27.25;;;17.42;;
49548;SDS011;35450;44.518;7.466;2024-01-11T01:56:39;29.65;;;19.02;;
49548;SDS011;35450;44.518;7.466;2024-01-11T01:59:44;30.00;;;18.90;;
49548;SDS011;35450;44.518;7.466;2024-01-11T02:02:50;27.58;;;18.30;;
49548;SDS011;35450;44.518;7.466;2024-01-11T02:05:56;28.27;;;19.15;;
49548;SDS011;35450;44.518;7.466;2024-01-11T02:09:00;30.42;;;19.35;;
49548;SDS011;35450;44.518;7.466;2024-01-11T02:12:08;27.55;;;17.92;;
49548;SDS011;35450;44.518;7.466;2024-01-11T02:15:14;31.35;;;18.83;;
49548;SDS011;35450;44.518;7.466;2024-01-11T02:18:19;30.15;;;18.00;;
49548;SDS011;35450;44.518;7.466;2024-01-11T02:21:22;37.25;;;22.45;;
49548;SDS011;35450;44.518;7.466;2024-01-11T02:24:28;48.25;;;25.08;;
49548;SDS011;35450;44.518;7.466;2024-01-11T02:27:44;92.47;;;35.10;;
49548;SDS011;35450;44.518;7.466;2024-01-11T02:30:52;36.88;;;19.13;;
49548;SDS011;35450;44.518;7.466;2024-01-11T02:33:55;27.98;;;16.35;;
49548;SDS011;35450;44.518;7.466;2024-01-11T02:37:00;26.92;;;16.35;;
49548;SDS011;35450;44.518;7.466;2024-01-11T02:40:04;22.98;;;15.15;;
49548;SDS011;35450;44.518;7.466;2024-01-11T02:43:10;26.92;;;16.17;;
49548;SDS011;35450;44.518;7.466;2024-01-11T02:46:15;31.33;;;18.98;;
49548;SDS011;35450;44.518;7.466;2024-01-11T02:49:19;31.33;;;18.73;;
49548;SDS011;35450;44.518;7.466;2024-01-11T02:52:23;32.42;;;19.85;;
49548;SDS011;35450;44.518;7.466;2024-01-11T02:55:27;29.92;;;19.10;;
49548;SDS011;35450;44.518;7.466;2024-01-11T02:58:31;31.13;;;19.55;;
49548;SDS011;35450;44.518;7.466;2024-01-11T03:01:35;35.05;;;20.30;;
49548;SDS011;35450;44.518;7.466;2024-01-11T03:04:40;40.90;;;24.27;;
49548;SDS011;35450;44.518;7.466;2024-01-11T03:07:43;37.95;;;22.63;;
49548;SDS011;35450;44.518;7.466;2024-01-11T03:10:47;38.60;;;23.00;;
49548;SDS011;35450;44.518;7.466;2024-01-11T03:13:52;34.25;;;21.83;;
49548;SDS011;35450;44.518;7.466;2024-01-11T03:16:56;35.85;;;22.45;;
49548;SDS011;35450;44.518;7.466;2024-01-11T03:19:59;36.67;;;23.27;;
49548;SDS011;35450;44.518;7.466;2024-01-11T03:23:03;34.28;;;21.75;;
49548;SDS011;35450;44.518;7.466;2024-01-11T03:26:15;34.42;;;22.10;;
49548;SDS011;35450;44.518;7.466;2024-01-11T03:29:19;37.47;;;22.95;;
49548;SDS011;35450;44.518;7.466;2024-01-11T03:32:23;36.45;;;22.33;;
49548;SDS011;35450;44.518;7.466;2024-01-11T03:35:27;34.50;;;21.42;;
49548;SDS011;35450;44.518;7.466;2024-01-11T03:38:31;36.47;;;23.73;;
49548;SDS011;35450;44.518;7.466;2024-01-11T03:41:35;33.70;;;21.77;;
49548;SDS011;35450;44.518;7.466;2024-01-11T03:44:39;39.20;;;21.88;;
49548;SDS011;35450;44.518;7.466;2024-01-11T03:47:43;31.25;;;19.33;;
49548;SDS011;35450;44.518;7.466;2024-01-11T03:50:47;35.03;;;21.20;;
49548;SDS011;35450;44.518;7.466;2024-01-11T03:53:51;33.72;;;19.70;;
49548;SDS011;35450;44.518;7.466;2024-01-11T03:56:55;32.63;;;20.35;;
49548;SDS011;35450;44.518;7.466;2024-01-11T04:00:00;37.97;;;20.35;;
49548;SDS011;35450;44.518;7.466;2024-01-11T04:03:07;36.28;;;20.08;;
49548;SDS011;35450;44.518;7.466;2024-01-11T04:06:21;33.63;;;20.42;;
49548;SDS011;35450;44.518;7.466;2024-01-11T04:09:26;39.03;;;23.05;;
49548;SDS011;35450;44.518;7.466;2024-01-11T04:12:30;40.42;;;24.13;;
49548;SDS011;35450;44.518;7.466;2024-01-11T04:15:34;40.03;;;23.40;;
49548;SDS011;35450;44.518;7.466;2024-01-11T04:18:38;44.70;;;24.23;;
49548;SDS011;35450;44.518;7.466;2024-01-11T04:21:42;44.85;;;26.17;;
49548;SDS011;35450;44.518;7.466;2024-01-11T04:24:46;40.03;;;25.38;;
49548;SDS011;35450;44.518;7.466;2024-01-11T04:27:50;47.50;;;26.80;;
49548;SDS011;35450;44.518;7.466;2024-01-11T04:30:54;41.83;;;23.77;;
49548;SDS011;35450;44.518;7.466;2024-01-11T04:33:58;40.10;;;22.88;;
49548;SDS011;35450;44.518;7.466;2024-01-11T04:37:02;38.33;;;23.40;;
49548;SDS011;35450;44.518;7.466;2024-01-11T04:40:06;35.97;;;21.42;;
49548;SDS011;35450;44.518;7.466;2024-01-11T04:43:11;34.35;;;19.95;;
49548;SDS011;35450;44.518;7.466;2024-01-11T04:46:16;34.78;;;21.95;;
49548;SDS011;35450;44.518;7.466;2024-01-11T04:49:20;36.85;;;22.48;;
49548;SDS011;35450;44.518;7.466;2024-01-11T04:52:25;32.33;;;19.85;;
49548;SDS011;35450;44.518;7.466;2024-01-11T04:55:29;32.67;;;20.27;;
49548;SDS011;35450;44.518;7.466;2024-01-11T04:58:33;35.00;;;21.00;;
49548;SDS011;35450;44.518;7.466;2024-01-11T05:01:38;37.78;;;22.65;;
49548;SDS011;35450;44.518;7.466;2024-01-11T05:04:42;41.35;;;23.70;;
49548;SDS011;35450;44.518;7.466;2024-01-11T05:07:46;43.05;;;26.55;;
49548;SDS011;35450;44.518;7.466;2024-01-11T05:10:50;42.65;;;25.63;;
49548;SDS011;35450;44.518;7.466;2024-01-11T05:13:54;48.42;;;27.63;;
49548;SDS011;35450;44.518;7.466;2024-01-11T05:16:59;44.13;;;25.90;;
49548;SDS011;35450;44.518;7.466;2024-01-11T05:20:04;42.28;;;26.05;;
49548;SDS011;35450;44.518;7.466;2024-01-11T05:23:08;49.47;;;26.95;;
49548;SDS011;35450;44.518;7.466;2024-01-11T05:26:13;43.60;;;25.20;;
49548;SDS011;35450;44.518;7.466;2024-01-11T05:29:18;43.10;;;26.25;;
49548;SDS011;35450;44.518;7.466;2024-01-11T05:32:22;44.22;;;26.55;;
49548;SDS011;35450;44.518;7.466;2024-01-11T05:35:26;47.17;;;27.30;;
49548;SDS011;35450;44.518;7.466;2024-01-11T05:38:33;46.40;;;26.33;;
49548;SDS011;35450;44.518;7.466;2024-01-11T05:41:37;47.72;;;27.38;;
49548;SDS011;35450;44.518;7.466;2024-01-11T05:44:41;45.85;;;27.95;;
49548;SDS011;35450;44.518;7.466;2024-01-11T05:47:45;58.22;;;28.55;;
49548;SDS011;35450;44.518;7.466;2024-01-11T05:50:49;49.33;;;27.83;;
49548;SDS011;35450;44.518;7.466;2024-01-11T05:53:53;49.70;;;28.88;;
49548;SDS011;35450;44.518;7.466;2024-01-11T05:56:57;47.55;;;28.00;;
49548;SDS011;35450;44.518;7.466;2024-01-11T06:00:03;51.47;;;28.88;;
49548;SDS011;35450;44.518;7.466;2024-01-11T06:03:11;47.97;;;28.33;;
49548;SDS011;35450;44.518;7.466;2024-01-11T06:06:15;52.58;;;28.50;;
49548;SDS011;35450;44.518;7.466;2024-01-11T06:09:19;45.97;;;27.27;;
49548;SDS011;35450;44.518;7.466;2024-01-11T06:12:23;51.47;;;28.65;;
49548;SDS011;35450;44.518;7.466;2024-01-11T06:15:27;51.92;;;27.75;;
49548;SDS011;35450;44.518;7.466;2024-01-11T06:18:31;48.97;;;27.73;;
49548;SDS011;35450;44.518;7.466;2024-01-11T06:21:35;51.22;;;29.27;;
49548;SDS011;35450;44.518;7.466;2024-01-11T06:24:39;48.63;;;27.65;;
49548;SDS011;35450;44.518;7.466;2024-01-11T06:27:43;51.72;;;27.23;;
49548;SDS011;35450;44.518;7.466;2024-01-11T06:30:49;54.85;;;29.15;;
49548;SDS011;35450;44.518;7.466;2024-01-11T06:33:53;48.65;;;26.33;;
49548;SDS011;35450;44.518;7.466;2024-01-11T06:36:57;51.15;;;26.55;;
49548;SDS011;35450;44.518;7.466;2024-01-11T06:40:02;54.10;;;27.88;;
49548;SDS011;35450;44.518;7.466;2024-01-11T06:43:07;56.20;;;27.80;;
49548;SDS011;35450;44.518;7.466;2024-01-11T06:46:11;58.42;;;29.17;;
49548;SDS011;35450;44.518;7.466;2024-01-11T06:49:15;56.05;;;28.95;;
49548;SDS011;35450;44.518;7.466;2024-01-11T06:52:19;58.45;;;28.63;;
49548;SDS011;35450;44.518;7.466;2024-01-11T06:55:23;53.25;;;26.20;;
49548;SDS011;35450;44.518;7.466;2024-01-11T06:58:27;57.13;;;29.20;;
49548;SDS011;35450;44.518;7.466;2024-01-11T07:01:30;53.00;;;28.15;;
49548;SDS011;35450;44.518;7.466;2024-01-11T07:04:35;56.55;;;28.08;;
49548;SDS011;35450;44.518;7.466;2024-01-11T07:07:39;54.08;;;30.75;;
49548;SDS011;35450;44.518;7.466;2024-01-11T07:10:43;59.20;;;29.15;;
49548;SDS011;35450;44.518;7.466;2024-01-11T07:13:47;58.88;;;27.02;;
49548;SDS011;35450;44.518;7.466;2024-01-11T07:16:51;60.03;;;29.63;;
49548;SDS011;35450;44.518;7.466;2024-01-11T07:19:55;57.17;;;28.65;;
49548;SDS011;35450;44.518;7.466;2024-01-11T07:23:00;55.55;;;27.90;;
49548;SDS011;35450;44.518;7.466;2024-01-11T07:26:05;53.88;;;28.98;;
49548;SDS011;35450;44.518;7.466;2024-01-11T07:29:08;62.03;;;33.15;;
49548;SDS011;35450;44.518;7.466;2024-01-11T07:32:13;62.28;;;33.03;;
49548;SDS011;35450;44.518;7.466;2024-01-11T07:35:17;61.25;;;33.17;;
49548;SDS011;35450;44.518;7.466;2024-01-11T07:38:21;57.58;;;32.65;;
49548;SDS011;35450;44.518;7.466;2024-01-11T07:41:25;66.05;;;35.97;;
49548;SDS011;35450;44.518;7.466;2024-01-11T07:44:29;71.68;;;36.00;;
49548;SDS011;35450;44.518;7.466;2024-01-11T07:47:33;82.05;;;40.40;;
49548;SDS011;35450;44.518;7.466;2024-01-11T07:50:37;85.70;;;42.92;;
49548;SDS011;35450;44.518;7.466;2024-01-11T07:53:41;76.03;;;39.50;;
49548;SDS011;35450;44.518;7.466;2024-01-11T07:56:45;67.32;;;34.35;;
49548;SDS011;35450;44.518;7.466;2024-01-11T07:59:49;60.92;;;32.78;;
49548;SDS011;35450;44.518;7.466;2024-01-11T08:02:53;56.72;;;32.70;;
49548;SDS011;35450;44.518;7.466;2024-01-11T08:05:58;70.60;;;34.85;;
49548;SDS011;35450;44.518;7.466;2024-01-11T08:09:01;68.10;;;37.45;;
49548;SDS011;35450;44.518;7.466;2024-01-11T08:12:07;61.83;;;33.45;;
49548;SDS011;35450;44.518;7.466;2024-01-11T08:15:11;58.83;;;33.03;;
49548;SDS011;35450;44.518;7.466;2024-01-11T08:18:18;62.80;;;33.90;;
49548;SDS011;35450;44.518;7.466;2024-01-11T08:21:22;63.05;;;33.05;;
49548;SDS011;35450;44.518;7.466;2024-01-11T08:24:26;63.97;;;31.42;;
49548;SDS011;35450;44.518;7.466;2024-01-11T08:27:33;57.63;;;30.92;;
49548;SDS011;35450;44.518;7.466;2024-01-11T08:30:37;56.85;;;32.10;;
49548;SDS011;35450;44.518;7.466;2024-01-11T08:33:41;65.28;;;35.22;;
49548;SDS011;35450;44.518;7.466;2024-01-11T08:36:45;66.18;;;34.67;;
49548;SDS011;35450;44.518;7.466;2024-01-11T08:39:49;59.08;;;33.58;;
49548;SDS011;35450;44.518;7.466;2024-01-11T08:42:54;61.45;;;33.92;;
49548;SDS011;35450;44.518;7.466;2024-01-11T08:45:58;64.78;;;35.20;;
49548;SDS011;35450;44.518;7.466;2024-01-11T08:49:02;59.58;;;32.25;;
49548;SDS011;35450;44.518;7.466;2024-01-11T08:52:07;59.75;;;34.00;;
49548;SDS011;35450;44.518;7.466;2024-01-11T08:55:11;56.55;;;31.45;;
49548;SDS011;35450;44.518;7.466;2024-01-11T08:58:16;59.28;;;30.95;;
49548;SDS011;35450;44.518;7.466;2024-01-11T09:01:20;54.05;;;29.00;;
49548;SDS011;35450;44.518;7.466;2024-01-11T09:04:25;46.35;;;27.10;;
49548;SDS011;35450;44.518;7.466;2024-01-11T09:07:31;49.60;;;27.85;;
49548;SDS011;35450;44.518;7.466;2024-01-11T09:10:35;52.45;;;29.20;;
49548;SDS011;35450;44.518;7.466;2024-01-11T09:13:40;50.33;;;29.60;;
49548;SDS011;35450;44.518;7.466;2024-01-11T09:16:44;48.67;;;28.10;;
49548;SDS011;35450;44.518;7.466;2024-01-11T09:19:49;47.80;;;27.85;;
49548;SDS011;35450;44.518;7.466;2024-01-11T09:22:53;46.97;;;24.92;;
49548;SDS011;35450;44.518;7.466;2024-01-11T09:25:57;50.25;;;26.35;;
49548;SDS011;35450;44.518;7.466;2024-01-11T09:29:01;44.25;;;25.05;;
49548;SDS011;35450;44.518;7.466;2024-01-11T09:32:06;44.90;;;24.77;;
49548;SDS011;35450;44.518;7.466;2024-01-11T09:35:09;39.45;;;22.60;;
49548;SDS011;35450;44.518;7.466;2024-01-11T09:38:14;45.38;;;25.67;;
49548;SDS011;35450;44.518;7.466;2024-01-11T09:41:18;43.17;;;23.35;;
49548;SDS011;35450;44.518;7.466;2024-01-11T09:44:23;42.42;;;24.27;;
49548;SDS011;35450;44.518;7.466;2024-01-11T09:47:28;38.78;;;23.08;;
49548;SDS011;35450;44.518;7.466;2024-01-11T09:50:32;42.13;;;23.38;;
49548;SDS011;35450;44.518;7.466;2024-01-11T09:53:37;36.35;;;21.60;;
49548;SDS011;35450;44.518;7.466;2024-01-11T09:56:42;39.15;;;21.30;;
49548;SDS011;35450;44.518;7.466;2024-01-11T09:59:48;40.92;;;23.10;;
49548;SDS011;35450;44.518;7.466;2024-01-11T10:02:55;37.60;;;22.65;;
49548;SDS011;35450;44.518;7.466;2024-01-11T10:05:59;41.58;;;23.45;;
49548;SDS011;35450;44.518;7.466;2024-01-11T10:09:05;38.95;;;22.73;;
49548;SDS011;35450;44.518;7.466;2024-01-11T10:12:10;41.88;;;24.00;;
49548;SDS011;35450;44.518;7.466;2024-01-11T10:15:13;41.70;;;23.88;;
49548;SDS011;35450;44.518;7.466;2024-01-11T10:18:17;47.50;;;25.30;;
49548;SDS011;35450;44.518;7.466;2024-01-11T10:21:27;43.53;;;23.73;;
49548;SDS011;35450;44.518;7.466;2024-01-11T10:24:33;43.85;;;25.13;;
49548;SDS011;35450;44.518;7.466;2024-01-11T10:27:42;45.47;;;25.55;;
49548;SDS011;35450;44.518;7.466;2024-01-11T10:30:50;41.90;;;23.52;;
49548;SDS011;35450;44.518;7.466;2024-01-11T10:33:57;47.00;;;24.52;;
49548;SDS011;35450;44.518;7.466;2024-01-11T10:37:00;40.17;;;24.35;;
49548;SDS011;35450;44.518;7.466;2024-01-11T10:40:06;41.40;;;25.98;;
49548;SDS011;35450;44.518;7.466;2024-01-11T10:43:14;44.97;;;25.95;;
49548;SDS011;35450;44.518;7.466;2024-01-11T10:46:23;41.47;;;24.75;;
49548;SDS011;35450;44.518;7.466;2024-01-11T10:49:31;43.50;;;25.50;;
49548;SDS011;35450;44.518;7.466;2024-01-11T10:52:47;49.72;;;28.15;;
49548;SDS011;35450;44.518;7.466;2024-01-11T10:56:06;43.60;;;24.30;;
49548;SDS011;35450;44.518;7.466;2024-01-11T10:59:11;45.25;;;22.65;;
49548;SDS011;35450;44.518;7.466;2024-01-11T11:02:16;42.08;;;23.75;;
49548;SDS011;35450;44.518;7.466;2024-01-11T11:05:21;42.90;;;23.95;;
49548;SDS011;35450;44.518;7.466;2024-01-11T11:08:28;43.88;;;24.58;;
49548;SDS011;35450;44.518;7.466;2024-01-11T11:11:32;44.45;;;25.10;;
49548;SDS011;35450;44.518;7.466;2024-01-11T11:14:38;42.42;;;24.60;;
49548;SDS011;35450;44.518;7.466;2024-01-11T11:17:42;40.40;;;24.13;;
49548;SDS011;35450;44.518;7.466;2024-01-11T11:20:47;40.83;;;24.10;;
49548;SDS011;35450;44.518;7.466;2024-01-11T11:23:51;40.80;;;24.17;;
49548;SDS011;35450;44.518;7.466;2024-01-11T11:26:56;39.05;;;22.95;;
49548;SDS011;35450;44.518;7.466;2024-01-11T11:30:00;43.33;;;23.67;;
49548;SDS011;35450;44.518;7.466;2024-01-11T11:33:08;38.60;;;22.77;;
49548;SDS011;35450;44.518;7.466;2024-01-11T11:36:13;42.92;;;23.70;;
49548;SDS011;35450;44.518;7.466;2024-01-11T11:39:20;41.33;;;24.17;;
49548;SDS011;35450;44.518;7.466;2024-01-11T11:42:25;39.83;;;23.63;;
49548;SDS011;35450;44.518;7.466;2024-01-11T11:45:30;37.45;;;23.52;;
49548;SDS011;35450;44.518;7.466;2024-01-11T11:51:45;43.55;;;25.20;;
49548;SDS011;35450;44.518;7.466;2024-01-11T11:54:49;46.20;;;25.25;;
49548;SDS011;35450;44.518;7.466;2024-01-11T11:57:53;46.53;;;24.65;;
49548;SDS011;35450;44.518;7.466;2024-01-11T12:00:57;41.33;;;24.40;;
49548;SDS011;35450;44.518;7.466;2024-01-11T12:04:02;41.97;;;24.45;;
49548;SDS011;35450;44.518;7.466;2024-01-11T12:07:07;41.78;;;26.02;;
49548;SDS011;35450;44.518;7.466;2024-01-11T12:10:11;40.17;;;23.02;;
49548;SDS011;35450;44.518;7.466;2024-01-11T12:13:15;38.20;;;24.13;;
49548;SDS011;35450;44.518;7.466;2024-01-11T12:16:19;40.72;;;23.77;;
49548;SDS011;35450;44.518;7.466;2024-01-11T12:19:24;44.90;;;25.50;;
49548;SDS011;35450;44.518;7.466;2024-01-11T12:22:28;45.30;;;24.83;;
49548;SDS011;35450;44.518;7.466;2024-01-11T12:25:32;47.25;;;27.13;;
49548;SDS011;35450;44.518;7.466;2024-01-11T12:28:36;45.50;;;26.25;;
49548;SDS011;35450;44.518;7.466;2024-01-11T12:31:41;43.47;;;26.42;;
49548;SDS011;35450;44.518;7.466;2024-01-11T12:34:45;46.72;;;26.85;;
49548;SDS011;35450;44.518;7.466;2024-01-11T12:37:54;45.03;;;25.90;;
49548;SDS011;35450;44.518;7.466;2024-01-11T12:40:58;43.88;;;25.88;;
49548;SDS011;35450;44.518;7.466;2024-01-11T12:44:03;44.58;;;24.70;;
49548;SDS011;35450;44.518;7.466;2024-01-11T12:47:07;47.97;;;27.98;;
49548;SDS011;35450;44.518;7.466;2024-01-11T12:50:11;45.42;;;27.45;;
49548;SDS011;35450;44.518;7.466;2024-01-11T12:53:16;45.33;;;24.70;;
49548;SDS011;35450;44.518;7.466;2024-01-11T12:56:24;52.80;;;28.48;;
49548;SDS011;35450;44.518;7.466;2024-01-11T12:59:28;51.45;;;28.92;;
49548;SDS011;35450;44.518;7.466;2024-01-11T13:02:32;48.22;;;26.67;;
49548;SDS011;35450;44.518;7.466;2024-01-11T13:05:37;43.75;;;26.27;;
49548;SDS011;35450;44.518;7.466;2024-01-11T13:08:42;52.78;;;29.10;;
49548;SDS011;35450;44.518;7.466;2024-01-11T13:11:46;42.67;;;26.17;;
49548;SDS011;35450;44.518;7.466;2024-01-11T13:14:50;45.25;;;27.20;;
49548;SDS011;35450;44.518;7.466;2024-01-11T13:17:56;51.30;;;27.95;;
49548;SDS011;35450;44.518;7.466;2024-01-11T13:21:01;39.38;;;26.23;;
49548;SDS011;35450;44.518;7.466;2024-01-11T13:24:06;43.92;;;26.90;;
49548;SDS011;35450;44.518;7.466;2024-01-11T13:27:11;49.97;;;25.92;;
49548;SDS011;35450;44.518;7.466;2024-01-11T13:30:15;43.03;;;26.02;;
49548;SDS011;35450;44.518;7.466;2024-01-11T13:33:19;42.80;;;24.33;;
49548;SDS011;35450;44.518;7.466;2024-01-11T13:36:26;39.78;;;25.02;;
49548;SDS011;35450;44.518;7.466;2024-01-11T13:39:30;43.80;;;25.35;;
49548;SDS011;35450;44.518;7.466;2024-01-11T13:42:34;40.20;;;24.52;;
49548;SDS011;35450;44.518;7.466;2024-01-11T13:45:38;43.47;;;26.23;;
49548;SDS011;35450;44.518;7.466;2024-01-11T13:48:42;42.60;;;26.92;;
49548;SDS011;35450;44.518;7.466;2024-01-11T13:51:46;43.42;;;24.63;;
49548;SDS011;35450;44.518;7.466;2024-01-11T13:54:51;48.33;;;26.70;;
49548;SDS011;35450;44.518;7.466;2024-01-11T13:57:55;40.60;;;25.08;;
49548;SDS011;35450;44.518;7.466;2024-01-11T14:00:59;44.33;;;24.83;;
49548;SDS011;35450;44.518;7.466;2024-01-11T14:04:03;42.25;;;23.55;;
49548;SDS011;35450;44.518;7.466;2024-01-11T14:07:08;38.85;;;23.60;;
49548;SDS011;35450;44.518;7.466;2024-01-11T14:10:12;41.40;;;24.10;;
49548;SDS011;35450;44.518;7.466;2024-01-11T14:13:17;38.10;;;23.30;;
49548;SDS011;35450;44.518;7.466;2024-01-11T14:16:21;38.75;;;23.65;;
49548;SDS011;35450;44.518;7.466;2024-01-11T14:19:26;36.92;;;22.83;;
49548;SDS011;35450;44.518;7.466;2024-01-11T14:22:31;40.40;;;23.50;;
49548;SDS011;35450;44.518;7.466;2024-01-11T14:25:35;43.28;;;25.23;;
49548;SDS011;35450;44.518;7.466;2024-01-11T14:28:40;40.42;;;25.10;;
49548;SDS011;35450;44.518;7.466;2024-01-11T14:31:46;38.67;;;22.92;;
49548;SDS011;35450;44.518;7.466;2024-01-11T14:34:50;42.80;;;24.40;;
49548;SDS011;35450;44.518;7.466;2024-01-11T14:37:54;42.40;;;24.35;;
49548;SDS011;35450;44.518;7.466;2024-01-11T14:40:58;37.30;;;23.92;;
49548;SDS011;35450;44.518;7.466;2024-01-11T14:44:02;38.35;;;23.75;;
49548;SDS011;35450;44.518;7.466;2024-01-11T14:47:06;39.28;;;24.30;;
49548;SDS011;35450;44.518;7.466;2024-01-11T14:50:11;39.85;;;23.55;;
49548;SDS011;35450;44.518;7.466;2024-01-11T14:53:15;37.60;;;24.17;;
49548;SDS011;35450;44.518;7.466;2024-01-11T14:56:19;37.05;;;23.58;;
49548;SDS011;35450;44.518;7.466;2024-01-11T14:59:24;41.33;;;23.40;;
49548;SDS011;35450;44.518;7.466;2024-01-11T15:02:28;35.53;;;20.92;;
49548;SDS011;35450;44.518;7.466;2024-01-11T15:05:32;35.45;;;22.33;;
49548;SDS011;35450;44.518;7.466;2024-01-11T15:08:36;35.33;;;21.48;;
49548;SDS011;35450;44.518;7.466;2024-01-11T15:11:41;40.25;;;25.55;;
49548;SDS011;35450;44.518;7.466;2024-01-11T15:14:45;44.67;;;26.73;;
49548;SDS011;35450;44.518;7.466;2024-01-11T15:17:49;42.55;;;27.13;;
49548;SDS011;35450;44.518;7.466;2024-01-11T15:20:53;41.70;;;25.23;;
49548;SDS011;35450;44.518;7.466;2024-01-11T15:23:57;43.03;;;26.10;;
49548;SDS011;35450;44.518;7.466;2024-01-11T15:27:03;45.15;;;25.85;;
49548;SDS011;35450;44.518;7.466;2024-01-11T15:30:08;44.88;;;26.65;;
49548;SDS011;35450;44.518;7.466;2024-01-11T15:33:15;43.00;;;26.77;;
49548;SDS011;35450;44.518;7.466;2024-01-11T15:36:19;41.90;;;27.00;;
49548;SDS011;35450;44.518;7.466;2024-01-11T15:39:23;42.70;;;26.65;;
49548;SDS011;35450;44.518;7.466;2024-01-11T15:42:27;48.45;;;30.35;;
49548;SDS011;35450;44.518;7.466;2024-01-11T15:45:31;45.78;;;27.08;;
49548;SDS011;35450;44.518;7.466;2024-01-11T15:48:36;48.00;;;27.40;;
49548;SDS011;35450;44.518;7.466;2024-01-11T15:51:40;43.03;;;27.13;;
49548;SDS011;35450;44.518;7.466;2024-01-11T15:54:44;43.80;;;27.20;;
49548;SDS011;35450;44.518;7.466;2024-01-11T15:57:49;51.60;;;27.30;;
49548;SDS011;35450;44.518;7.466;2024-01-11T16:00:56;44.85;;;26.50;;
49548;SDS011;35450;44.518;7.466;2024-01-11T16:04:01;46.80;;;27.33;;
49548;SDS011;35450;44.518;7.466;2024-01-11T16:07:11;47.53;;;28.30;;
49548;SDS011;35450;44.518;7.466;2024-01-11T16:10:15;45.20;;;27.40;;
49548;SDS011;35450;44.518;7.466;2024-01-11T16:13:19;43.85;;;25.08;;
49548;SDS011;35450;44.518;7.466;2024-01-11T16:16:23;43.47;;;24.73;;
49548;SDS011;35450;44.518;7.466;2024-01-11T16:19:27;48.08;;;25.77;;
49548;SDS011;35450;44.518;7.466;2024-01-11T16:22:31;59.30;;;33.97;;
49548;SDS011;35450;44.518;7.466;2024-01-11T16:25:35;79.43;;;43.63;;
49548;SDS011;35450;44.518;7.466;2024-01-11T16:28:39;54.90;;;32.13;;
49548;SDS011;35450;44.518;7.466;2024-01-11T16:31:43;44.72;;;26.88;;
49548;SDS011;35450;44.518;7.466;2024-01-11T16:34:48;41.97;;;25.40;;
49548;SDS011;35450;44.518;7.466;2024-01-11T16:37:52;39.35;;;23.10;;
49548;SDS011;35450;44.518;7.466;2024-01-11T16:40:56;60.22;;;34.13;;
49548;SDS011;35450;44.518;7.466;2024-01-11T16:44:00;37.92;;;21.88;;
49548;SDS011;35450;44.518;7.466;2024-01-11T16:47:06;38.33;;;21.70;;
49548;SDS011;35450;44.518;7.466;2024-01-11T16:50:10;40.60;;;20.02;;
49548;SDS011;35450;44.518;7.466;2024-01-11T16:53:14;34.78;;;20.80;;
49548;SDS011;35450;44.518;7.466;2024-01-11T16:56:22;35.53;;;20.55;;
49548;SDS011;35450;44.518;7.466;2024-01-11T16:59:26;41.30;;;24.13;;
49548;SDS011;35450;44.518;7.466;2024-01-11T17:02:30;44.28;;;25.50;;
49548;SDS011;35450;44.518;7.466;2024-01-11T17:05:35;38.72;;;20.85;;
49548;SDS011;35450;44.518;7.466;2024-01-11T17:08:39;30.38;;;16.98;;
49548;SDS011;35450;44.518;7.466;2024-01-11T17:11:43;29.42;;;17.30;;
49548;SDS011;35450;44.518;7.466;2024-01-11T17:14:47;30.98;;;15.35;;
49548;SDS011;35450;44.518;7.466;2024-01-11T17:17:51;26.25;;;15.43;;
49548;SDS011;35450;44.518;7.466;2024-01-11T17:20:55;39.60;;;22.10;;
49548;SDS011;35450;44.518;7.466;2024-01-11T17:23:59;64.15;;;33.05;;
49548;SDS011;35450;44.518;7.466;2024-01-11T17:27:03;82.38;;;39.05;;
49548;SDS011;35450;44.518;7.466;2024-01-11T17:30:11;110.78;;;44.05;;
49548;SDS011;35450;44.518;7.466;2024-01-11T17:33:15;85.03;;;39.67;;
49548;SDS011;35450;44.518;7.466;2024-01-11T17:36:19;73.80;;;37.45;;
49548;SDS011;35450;44.518;7.466;2024-01-11T17:39:24;53.28;;;28.63;;
49548;SDS011;35450;44.518;7.466;2024-01-11T17:42:30;46.97;;;23.92;;
49548;SDS011;35450;44.518;7.466;2024-01-11T17:45:34;42.22;;;21.15;;
49548;SDS011;35450;44.518;7.466;2024-01-11T17:48:40;28.90;;;15.65;;
49548;SDS011;35450;44.518;7.466;2024-01-11T17:51:44;16.58;;;10.82;;
49548;SDS011;35450;44.518;7.466;2024-01-11T17:54:49;102.85;;;42.50;;
49548;SDS011;35450;44.518;7.466;2024-01-11T17:57:53;91.13;;;46.00;;
49548;SDS011;35450;44.518;7.466;2024-01-11T18:00:57;65.78;;;35.88;;